sensor_id;sensor_type;location;lat;lon;timestamp;temperature;humidity
12130;DHT22;6128;59.340;18.040;2023-10-08T00:00:24;5.10;99.90
12130;DHT22;6128;59.340;18.040;2023-10-08T00:03:12;5.10;99.90
12130;DHT22;6128;59.340;18.040;2023-10-08T00:05:39;5.10;99.90
12130;DHT22;6128;59.340;18.040;2023-10-08T00:08:10;5.10;99.90
12130;DHT22;6128;59.340;18.040;2023-10-08T00:10:38;5.10;99.90
12130;DHT22;6128;59.340;18.040;2023-10-08T00:13:07;5.10;99.90
12130;DHT22;6128;59.340;18.040;2023-10-08T00:15:35;5.10;99.90
12130;DHT22;6128;59.340;18.040;2023-10-08T00:18:03;5.10;99.90
12130;DHT22;6128;59.340;18.040;2023-10-08T00:20:32;5.10;99.90
12130;DHT22;6128;59.340;18.040;2023-10-08T00:23:09;5.10;99.90
12130;DHT22;6128;59.340;18.040;2023-10-08T00:25:36;5.00;99.90
12130;DHT22;6128;59.340;18.040;2023-10-08T00:28:07;5.00;99.90
12130;DHT22;6128;59.340;18.040;2023-10-08T00:30:39;5.00;99.90
12130;DHT22;6128;59.340;18.040;2023-10-08T00:33:07;5.00;99.90
12130;DHT22;6128;59.340;18.040;2023-10-08T00:35:40;5.00;99.90
12130;DHT22;6128;59.340;18.040;2023-10-08T00:38:09;5.00;99.90
12130;DHT22;6128;59.340;18.040;2023-10-08T00:40:41;5.00;99.90
12130;DHT22;6128;59.340;18.040;2023-10-08T00:45:54;4.90;99.90
12130;DHT22;6128;59.340;18.040;2023-10-08T00:48:25;5.00;99.90
12130;DHT22;6128;59.340;18.040;2023-10-08T00:50:55;4.90;99.90
12130;DHT22;6128;59.340;18.040;2023-10-08T00:53:36;4.90;99.90
12130;DHT22;6128;59.340;18.040;2023-10-08T00:56:06;5.00;99.90
12130;DHT22;6128;59.340;18.040;2023-10-08T00:58:39;5.00;99.90
12130;DHT22;6128;59.340;18.040;2023-10-08T01:01:06;4.90;99.90
12130;DHT22;6128;59.340;18.040;2023-10-08T01:03:36;4.90;99.90
12130;DHT22;6128;59.340;18.040;2023-10-08T01:06:10;4.90;99.90
12130;DHT22;6128;59.340;18.040;2023-10-08T01:08:39;4.90;99.90
12130;DHT22;6128;59.340;18.040;2023-10-08T01:11:20;4.90;99.90
12130;DHT22;6128;59.340;18.040;2023-10-08T01:13:56;4.90;99.90
12130;DHT22;6128;59.340;18.040;2023-10-08T01:16:24;4.90;99.90
12130;DHT22;6128;59.340;18.040;2023-10-08T01:18:52;4.90;99.90
12130;DHT22;6128;59.340;18.040;2023-10-08T01:21:21;4.90;99.90
12130;DHT22;6128;59.340;18.040;2023-10-08T01:24:02;4.90;99.90
12130;DHT22;6128;59.340;18.040;2023-10-08T01:26:32;4.80;99.90
12130;DHT22;6128;59.340;18.040;2023-10-08T01:28:59;4.90;99.90
12130;DHT22;6128;59.340;18.040;2023-10-08T01:31:32;4.80;99.90
12130;DHT22;6128;59.340;18.040;2023-10-08T01:33:59;4.80;99.90
12130;DHT22;6128;59.340;18.040;2023-10-08T01:36:30;4.80;99.90
12130;DHT22;6128;59.340;18.040;2023-10-08T01:38:58;4.80;99.90
12130;DHT22;6128;59.340;18.040;2023-10-08T01:41:29;4.80;99.90
12130;DHT22;6128;59.340;18.040;2023-10-08T01:43:56;4.80;99.90
12130;DHT22;6128;59.340;18.040;2023-10-08T01:46:24;4.80;99.90
12130;DHT22;6128;59.340;18.040;2023-10-08T01:48:52;4.80;99.90
12130;DHT22;6128;59.340;18.040;2023-10-08T01:51:29;4.80;99.90
12130;DHT22;6128;59.340;18.040;2023-10-08T01:54:04;4.80;99.90
12130;DHT22;6128;59.340;18.040;2023-10-08T01:56:40;4.80;99.90
12130;DHT22;6128;59.340;18.040;2023-10-08T01:59:08;4.80;99.90
12130;DHT22;6128;59.340;18.040;2023-10-08T02:01:37;4.80;99.90
12130;DHT22;6128;59.340;18.040;2023-10-08T02:04:06;4.80;99.90
12130;DHT22;6128;59.340;18.040;2023-10-08T02:06:34;4.80;99.90
12130;DHT22;6128;59.340;18.040;2023-10-08T02:09:01;4.80;99.90
12130;DHT22;6128;59.340;18.040;2023-10-08T02:11:43;4.80;99.90
12130;DHT22;6128;59.340;18.040;2023-10-08T02:14:10;4.80;99.90
12130;DHT22;6128;59.340;18.040;2023-10-08T02:16:40;4.80;99.90
12130;DHT22;6128;59.340;18.040;2023-10-08T02:19:08;4.70;99.90
12130;DHT22;6128;59.340;18.040;2023-10-08T02:21:37;4.80;99.90
12130;DHT22;6128;59.340;18.040;2023-10-08T02:24:06;4.70;99.90
12130;DHT22;6128;59.340;18.040;2023-10-08T02:26:34;4.80;99.90
12130;DHT22;6128;59.340;18.040;2023-10-08T02:29:02;4.70;99.90
12130;DHT22;6128;59.340;18.040;2023-10-08T02:31:34;4.80;99.90
12130;DHT22;6128;59.340;18.040;2023-10-08T02:34:01;4.70;99.90
12130;DHT22;6128;59.340;18.040;2023-10-08T02:36:28;4.70;99.90
12130;DHT22;6128;59.340;18.040;2023-10-08T02:38:56;4.70;99.90
12130;DHT22;6128;59.340;18.040;2023-10-08T02:41:23;4.70;99.90
12130;DHT22;6128;59.340;18.040;2023-10-08T02:43:51;4.70;99.90
12130;DHT22;6128;59.340;18.040;2023-10-08T02:46:19;4.70;99.90
12130;DHT22;6128;59.340;18.040;2023-10-08T02:48:47;4.70;99.90
12130;DHT22;6128;59.340;18.040;2023-10-08T02:51:14;4.70;99.90
12130;DHT22;6128;59.340;18.040;2023-10-08T02:53:41;4.70;99.90
12130;DHT22;6128;59.340;18.040;2023-10-08T02:56:09;4.70;99.90
12130;DHT22;6128;59.340;18.040;2023-10-08T02:58:40;4.70;99.90
12130;DHT22;6128;59.340;18.040;2023-10-08T03:01:09;4.70;99.90
12130;DHT22;6128;59.340;18.040;2023-10-08T03:03:40;4.70;99.90
12130;DHT22;6128;59.340;18.040;2023-10-08T03:06:08;4.70;99.90
12130;DHT22;6128;59.340;18.040;2023-10-08T03:08:40;4.70;99.90
12130;DHT22;6128;59.340;18.040;2023-10-08T03:11:09;4.70;99.90
12130;DHT22;6128;59.340;18.040;2023-10-08T03:13:44;4.70;99.90
12130;DHT22;6128;59.340;18.040;2023-10-08T03:16:12;4.70;99.90
12130;DHT22;6128;59.340;18.040;2023-10-08T03:18:41;4.70;99.90
12130;DHT22;6128;59.340;18.040;2023-10-08T03:21:11;4.70;99.90
12130;DHT22;6128;59.340;18.040;2023-10-08T03:23:48;4.70;99.90
12130;DHT22;6128;59.340;18.040;2023-10-08T03:26:17;4.70;99.90
12130;DHT22;6128;59.340;18.040;2023-10-08T03:29:00;4.70;99.90
12130;DHT22;6128;59.340;18.040;2023-10-08T03:31:32;4.70;99.90
12130;DHT22;6128;59.340;18.040;2023-10-08T03:34:18;4.70;99.90
12130;DHT22;6128;59.340;18.040;2023-10-08T03:36:46;4.70;99.90
12130;DHT22;6128;59.340;18.040;2023-10-08T03:39:15;4.70;99.90
12130;DHT22;6128;59.340;18.040;2023-10-08T03:41:44;4.70;99.90
12130;DHT22;6128;59.340;18.040;2023-10-08T03:44:25;4.70;99.90
12130;DHT22;6128;59.340;18.040;2023-10-08T03:46:55;4.70;99.90
12130;DHT22;6128;59.340;18.040;2023-10-08T03:49:24;4.60;99.90
12130;DHT22;6128;59.340;18.040;2023-10-08T03:51:57;4.70;99.90
12130;DHT22;6128;59.340;18.040;2023-10-08T03:54:24;4.60;99.90
12130;DHT22;6128;59.340;18.040;2023-10-08T03:56:59;4.60;99.90
12130;DHT22;6128;59.340;18.040;2023-10-08T03:59:30;4.60;99.90
12130;DHT22;6128;59.340;18.040;2023-10-08T04:01:58;4.60;99.90
12130;DHT22;6128;59.340;18.040;2023-10-08T04:04:37;4.60;99.90
12130;DHT22;6128;59.340;18.040;2023-10-08T04:07:17;4.60;99.90
12130;DHT22;6128;59.340;18.040;2023-10-08T04:10:06;4.60;99.90
12130;DHT22;6128;59.340;18.040;2023-10-08T04:13:00;4.60;99.90
12130;DHT22;6128;59.340;18.040;2023-10-08T04:15:27;4.60;99.90
12130;DHT22;6128;59.340;18.040;2023-10-08T04:17:54;4.60;99.90
12130;DHT22;6128;59.340;18.040;2023-10-08T04:20:23;4.60;99.90
12130;DHT22;6128;59.340;18.040;2023-10-08T04:23:05;4.60;99.90
12130;DHT22;6128;59.340;18.040;2023-10-08T04:25:39;4.50;99.90
12130;DHT22;6128;59.340;18.040;2023-10-08T04:28:08;4.60;99.90
12130;DHT22;6128;59.340;18.040;2023-10-08T04:30:40;4.50;99.90
12130;DHT22;6128;59.340;18.040;2023-10-08T04:33:14;4.60;99.90
12130;DHT22;6128;59.340;18.040;2023-10-08T04:35:54;4.60;99.90
12130;DHT22;6128;59.340;18.040;2023-10-08T04:38:28;4.60;99.90
12130;DHT22;6128;59.340;18.040;2023-10-08T04:41:02;4.50;99.90
12130;DHT22;6128;59.340;18.040;2023-10-08T04:43:34;4.60;99.90
12130;DHT22;6128;59.340;18.040;2023-10-08T04:46:04;4.60;99.90
12130;DHT22;6128;59.340;18.040;2023-10-08T04:48:45;4.50;99.90
12130;DHT22;6128;59.340;18.040;2023-10-08T04:51:13;4.60;99.90
12130;DHT22;6128;59.340;18.040;2023-10-08T04:53:41;4.60;99.90
12130;DHT22;6128;59.340;18.040;2023-10-08T04:56:11;4.60;99.90
12130;DHT22;6128;59.340;18.040;2023-10-08T04:58:43;4.50;99.90
12130;DHT22;6128;59.340;18.040;2023-10-08T05:01:13;4.60;99.90
12130;DHT22;6128;59.340;18.040;2023-10-08T05:03:54;4.50;99.90
12130;DHT22;6128;59.340;18.040;2023-10-08T05:06:50;4.60;99.90
12130;DHT22;6128;59.340;18.040;2023-10-08T05:09:27;4.50;99.90
12130;DHT22;6128;59.340;18.040;2023-10-08T05:12:13;4.60;99.90
12130;DHT22;6128;59.340;18.040;2023-10-08T05:15:00;4.60;99.90
12130;DHT22;6128;59.340;18.040;2023-10-08T05:17:46;4.50;99.90
12130;DHT22;6128;59.340;18.040;2023-10-08T05:20:24;4.60;99.90
12130;DHT22;6128;59.340;18.040;2023-10-08T05:23:07;4.60;99.90
12130;DHT22;6128;59.340;18.040;2023-10-08T05:26:08;4.60;99.90
12130;DHT22;6128;59.340;18.040;2023-10-08T05:28:46;4.60;99.90
12130;DHT22;6128;59.340;18.040;2023-10-08T05:31:27;4.60;99.90
12130;DHT22;6128;59.340;18.040;2023-10-08T05:34:12;4.60;99.90
12130;DHT22;6128;59.340;18.040;2023-10-08T05:36:48;4.70;99.90
12130;DHT22;6128;59.340;18.040;2023-10-08T05:39:42;4.70;99.90
12130;DHT22;6128;59.340;18.040;2023-10-08T05:42:12;4.70;99.90
12130;DHT22;6128;59.340;18.040;2023-10-08T05:44:46;4.70;99.90
12130;DHT22;6128;59.340;18.040;2023-10-08T05:47:33;4.70;99.90
12130;DHT22;6128;59.340;18.040;2023-10-08T05:50:07;4.80;99.90
12130;DHT22;6128;59.340;18.040;2023-10-08T05:52:52;4.70;99.90
12130;DHT22;6128;59.340;18.040;2023-10-08T05:55:32;4.80;99.90
12130;DHT22;6128;59.340;18.040;2023-10-08T05:58:07;4.80;99.90
12130;DHT22;6128;59.340;18.040;2023-10-08T06:01:09;4.90;99.90
12130;DHT22;6128;59.340;18.040;2023-10-08T06:03:51;4.90;99.90
12130;DHT22;6128;59.340;18.040;2023-10-08T06:06:37;5.00;99.90
12130;DHT22;6128;59.340;18.040;2023-10-08T06:09:13;5.00;99.90
12130;DHT22;6128;59.340;18.040;2023-10-08T06:11:50;5.10;99.90
12130;DHT22;6128;59.340;18.040;2023-10-08T06:14:34;5.10;99.90
12130;DHT22;6128;59.340;18.040;2023-10-08T06:17:18;5.20;99.90
12130;DHT22;6128;59.340;18.040;2023-10-08T06:20:01;5.20;99.90
12130;DHT22;6128;59.340;18.040;2023-10-08T06:22:35;5.20;99.90
12130;DHT22;6128;59.340;18.040;2023-10-08T06:25:03;5.20;99.90
12130;DHT22;6128;59.340;18.040;2023-10-08T06:27:45;5.30;99.90
12130;DHT22;6128;59.340;18.040;2023-10-08T06:30:12;5.30;99.90
12130;DHT22;6128;59.340;18.040;2023-10-08T06:32:43;5.30;99.90
12130;DHT22;6128;59.340;18.040;2023-10-08T06:35:11;5.40;99.90
12130;DHT22;6128;59.340;18.040;2023-10-08T06:37:44;5.40;99.90
12130;DHT22;6128;59.340;18.040;2023-10-08T06:40:11;5.40;99.90
12130;DHT22;6128;59.340;18.040;2023-10-08T06:43:00;5.40;99.90
12130;DHT22;6128;59.340;18.040;2023-10-08T06:45:40;5.40;99.90
12130;DHT22;6128;59.340;18.040;2023-10-08T06:48:07;5.50;99.90
12130;DHT22;6128;59.340;18.040;2023-10-08T06:50:35;5.50;99.90
12130;DHT22;6128;59.340;18.040;2023-10-08T06:53:03;5.50;99.90
12130;DHT22;6128;59.340;18.040;2023-10-08T06:55:33;5.50;99.90
12130;DHT22;6128;59.340;18.040;2023-10-08T06:58:03;5.60;99.90
12130;DHT22;6128;59.340;18.040;2023-10-08T07:00:34;5.90;99.90
12130;DHT22;6128;59.340;18.040;2023-10-08T07:03:06;6.50;99.90
12130;DHT22;6128;59.340;18.040;2023-10-08T07:05:36;7.20;99.90
12130;DHT22;6128;59.340;18.040;2023-10-08T07:08:09;7.80;99.90
12130;DHT22;6128;59.340;18.040;2023-10-08T07:10:39;8.50;99.90
12130;DHT22;6128;59.340;18.040;2023-10-08T07:13:09;9.30;99.90
12130;DHT22;6128;59.340;18.040;2023-10-08T07:15:36;9.80;99.90
12130;DHT22;6128;59.340;18.040;2023-10-08T07:18:06;10.30;99.90
12130;DHT22;6128;59.340;18.040;2023-10-08T07:20:40;10.60;99.90
12130;DHT22;6128;59.340;18.040;2023-10-08T07:23:11;10.90;99.90
12130;DHT22;6128;59.340;18.040;2023-10-08T07:25:54;11.20;99.90
12130;DHT22;6128;59.340;18.040;2023-10-08T07:28:28;11.50;99.90
12130;DHT22;6128;59.340;18.040;2023-10-08T07:30:55;11.50;99.90
12130;DHT22;6128;59.340;18.040;2023-10-08T07:33:23;11.70;99.90
12130;DHT22;6128;59.340;18.040;2023-10-08T07:36:02;11.90;99.90
12130;DHT22;6128;59.340;18.040;2023-10-08T07:38:38;12.10;99.90
12130;DHT22;6128;59.340;18.040;2023-10-08T07:41:05;12.20;99.90
12130;DHT22;6128;59.340;18.040;2023-10-08T07:43:34;11.90;99.90
12130;DHT22;6128;59.340;18.040;2023-10-08T07:46:01;11.90;99.90
12130;DHT22;6128;59.340;18.040;2023-10-08T07:48:28;12.10;99.90
12130;DHT22;6128;59.340;18.040;2023-10-08T07:50:57;12.00;99.90
12130;DHT22;6128;59.340;18.040;2023-10-08T07:53:24;12.20;99.90
12130;DHT22;6128;59.340;18.040;2023-10-08T07:56:03;12.40;99.90
12130;DHT22;6128;59.340;18.040;2023-10-08T07:58:33;12.50;99.90
12130;DHT22;6128;59.340;18.040;2023-10-08T08:01:03;12.60;99.90
12130;DHT22;6128;59.340;18.040;2023-10-08T08:03:32;13.00;99.90
12130;DHT22;6128;59.340;18.040;2023-10-08T08:06:00;13.00;99.90
12130;DHT22;6128;59.340;18.040;2023-10-08T08:08:27;12.90;99.90
12130;DHT22;6128;59.340;18.040;2023-10-08T08:10:54;13.10;99.90
12130;DHT22;6128;59.340;18.040;2023-10-08T08:13:24;12.70;99.90
12130;DHT22;6128;59.340;18.040;2023-10-08T08:15:55;12.70;99.90
12130;DHT22;6128;59.340;18.040;2023-10-08T08:18:27;12.70;99.90
12130;DHT22;6128;59.340;18.040;2023-10-08T08:21:00;12.70;99.90
12130;DHT22;6128;59.340;18.040;2023-10-08T08:23:31;12.70;99.90
12130;DHT22;6128;59.340;18.040;2023-10-08T08:25:58;13.00;99.90
12130;DHT22;6128;59.340;18.040;2023-10-08T08:28:39;13.10;99.90
12130;DHT22;6128;59.340;18.040;2023-10-08T08:31:07;13.00;99.90
12130;DHT22;6128;59.340;18.040;2023-10-08T08:33:40;13.00;99.90
12130;DHT22;6128;59.340;18.040;2023-10-08T08:36:20;12.80;99.90
12130;DHT22;6128;59.340;18.040;2023-10-08T08:38:48;12.40;99.90
12130;DHT22;6128;59.340;18.040;2023-10-08T08:41:16;12.60;99.90
12130;DHT22;6128;59.340;18.040;2023-10-08T08:43:47;12.30;99.90
12130;DHT22;6128;59.340;18.040;2023-10-08T08:46:16;11.90;99.90
12130;DHT22;6128;59.340;18.040;2023-10-08T08:48:44;11.30;99.90
12130;DHT22;6128;59.340;18.040;2023-10-08T08:51:11;10.90;99.90
12130;DHT22;6128;59.340;18.040;2023-10-08T08:53:39;10.70;99.90
12130;DHT22;6128;59.340;18.040;2023-10-08T08:56:09;10.80;99.90
12130;DHT22;6128;59.340;18.040;2023-10-08T08:58:37;10.90;99.90
12130;DHT22;6128;59.340;18.040;2023-10-08T09:01:07;10.60;99.90
12130;DHT22;6128;59.340;18.040;2023-10-08T09:03:40;10.20;99.80
12130;DHT22;6128;59.340;18.040;2023-10-08T09:06:07;9.80;99.80
12130;DHT22;6128;59.340;18.040;2023-10-08T09:08:34;9.50;99.80
12130;DHT22;6128;59.340;18.040;2023-10-08T09:11:02;9.20;99.80
12130;DHT22;6128;59.340;18.040;2023-10-08T09:13:31;9.00;99.70
12130;DHT22;6128;59.340;18.040;2023-10-08T09:16:06;8.80;99.70
12130;DHT22;6128;59.340;18.040;2023-10-08T09:18:34;8.60;99.70
12130;DHT22;6128;59.340;18.040;2023-10-08T09:21:16;8.40;99.60
12130;DHT22;6128;59.340;18.040;2023-10-08T09:23:48;8.40;99.60
12130;DHT22;6128;59.340;18.040;2023-10-08T09:26:17;8.40;99.70
12130;DHT22;6128;59.340;18.040;2023-10-08T09:28:46;8.40;99.70
12130;DHT22;6128;59.340;18.040;2023-10-08T09:31:14;8.40;99.70
12130;DHT22;6128;59.340;18.040;2023-10-08T09:33:43;8.50;99.80
12130;DHT22;6128;59.340;18.040;2023-10-08T09:36:22;8.60;99.80
12130;DHT22;6128;59.340;18.040;2023-10-08T09:38:59;8.60;99.80
12130;DHT22;6128;59.340;18.040;2023-10-08T09:41:28;8.60;99.80
12130;DHT22;6128;59.340;18.040;2023-10-08T09:43:56;8.60;99.90
12130;DHT22;6128;59.340;18.040;2023-10-08T09:46:30;8.60;99.90
12130;DHT22;6128;59.340;18.040;2023-10-08T09:49:00;8.60;99.90
12130;DHT22;6128;59.340;18.040;2023-10-08T09:51:37;8.70;99.90
12130;DHT22;6128;59.340;18.040;2023-10-08T09:54:10;8.70;99.90
12130;DHT22;6128;59.340;18.040;2023-10-08T09:56:40;8.70;99.90
12130;DHT22;6128;59.340;18.040;2023-10-08T09:59:09;8.80;99.80
12130;DHT22;6128;59.340;18.040;2023-10-08T10:01:37;8.80;99.80
12130;DHT22;6128;59.340;18.040;2023-10-08T10:04:06;8.80;99.80
12130;DHT22;6128;59.340;18.040;2023-10-08T10:06:36;8.90;99.80
12130;DHT22;6128;59.340;18.040;2023-10-08T10:09:05;8.90;99.80
12130;DHT22;6128;59.340;18.040;2023-10-08T10:11:38;8.80;99.80
12130;DHT22;6128;59.340;18.040;2023-10-08T10:14:05;8.90;99.70
12130;DHT22;6128;59.340;18.040;2023-10-08T10:16:32;8.80;99.70
12130;DHT22;6128;59.340;18.040;2023-10-08T10:19:02;8.90;99.60
12130;DHT22;6128;59.340;18.040;2023-10-08T10:21:32;8.90;99.60
12130;DHT22;6128;59.340;18.040;2023-10-08T10:24:01;9.00;99.50
12130;DHT22;6128;59.340;18.040;2023-10-08T10:26:32;8.90;99.50
12130;DHT22;6128;59.340;18.040;2023-10-08T10:29:18;8.90;99.50
12130;DHT22;6128;59.340;18.040;2023-10-08T10:31:48;9.00;99.50
12130;DHT22;6128;59.340;18.040;2023-10-08T10:34:20;9.10;99.50
12130;DHT22;6128;59.340;18.040;2023-10-08T10:36:49;9.10;99.40
12130;DHT22;6128;59.340;18.040;2023-10-08T10:39:23;9.20;99.50
12130;DHT22;6128;59.340;18.040;2023-10-08T10:41:55;9.20;99.40
12130;DHT22;6128;59.340;18.040;2023-10-08T10:44:27;9.30;99.40
12130;DHT22;6128;59.340;18.040;2023-10-08T10:46:57;9.20;99.30
12130;DHT22;6128;59.340;18.040;2023-10-08T10:49:42;9.20;99.30
12130;DHT22;6128;59.340;18.040;2023-10-08T10:52:20;9.20;99.20
12130;DHT22;6128;59.340;18.040;2023-10-08T10:55:00;9.20;99.20
12130;DHT22;6128;59.340;18.040;2023-10-08T10:57:46;9.20;99.10
12130;DHT22;6128;59.340;18.040;2023-10-08T11:00:22;9.30;99.10
12130;DHT22;6128;59.340;18.040;2023-10-08T11:03:07;9.40;99.20
12130;DHT22;6128;59.340;18.040;2023-10-08T11:05:43;9.40;99.10
12130;DHT22;6128;59.340;18.040;2023-10-08T11:08:15;9.40;99.10
12130;DHT22;6128;59.340;18.040;2023-10-08T11:10:47;9.50;99.00
12130;DHT22;6128;59.340;18.040;2023-10-08T11:13:18;9.50;99.00
12130;DHT22;6128;59.340;18.040;2023-10-08T11:15:47;9.40;98.90
12130;DHT22;6128;59.340;18.040;2023-10-08T11:18:19;9.50;98.80
12130;DHT22;6128;59.340;18.040;2023-10-08T11:20:47;9.60;98.80
12130;DHT22;6128;59.340;18.040;2023-10-08T11:23:32;9.60;98.80
12130;DHT22;6128;59.340;18.040;2023-10-08T11:26:04;9.70;98.70
12130;DHT22;6128;59.340;18.040;2023-10-08T11:28:34;9.60;98.70
12130;DHT22;6128;59.340;18.040;2023-10-08T11:31:01;9.60;98.70
12130;DHT22;6128;59.340;18.040;2023-10-08T11:33:35;9.60;98.70
12130;DHT22;6128;59.340;18.040;2023-10-08T11:36:04;9.60;98.60
12130;DHT22;6128;59.340;18.040;2023-10-08T11:38:39;9.60;98.50
12130;DHT22;6128;59.340;18.040;2023-10-08T11:41:12;9.60;98.50
12130;DHT22;6128;59.340;18.040;2023-10-08T11:43:50;9.60;98.50
12130;DHT22;6128;59.340;18.040;2023-10-08T11:46:21;9.60;98.50
12130;DHT22;6128;59.340;18.040;2023-10-08T11:48:51;9.70;98.50
12130;DHT22;6128;59.340;18.040;2023-10-08T11:51:18;9.70;98.50
12130;DHT22;6128;59.340;18.040;2023-10-08T11:53:49;9.70;98.50
12130;DHT22;6128;59.340;18.040;2023-10-08T11:56:20;9.80;98.50
12130;DHT22;6128;59.340;18.040;2023-10-08T11:58:49;9.80;98.60
12130;DHT22;6128;59.340;18.040;2023-10-08T12:01:17;9.80;98.50
12130;DHT22;6128;59.340;18.040;2023-10-08T12:03:46;9.80;98.50
12130;DHT22;6128;59.340;18.040;2023-10-08T12:06:16;9.80;98.50
12130;DHT22;6128;59.340;18.040;2023-10-08T12:08:45;9.90;98.50
12130;DHT22;6128;59.340;18.040;2023-10-08T12:11:13;10.00;98.30
12130;DHT22;6128;59.340;18.040;2023-10-08T12:13:42;10.00;98.20
12130;DHT22;6128;59.340;18.040;2023-10-08T12:16:12;10.10;98.00
12130;DHT22;6128;59.340;18.040;2023-10-08T12:18:45;10.20;98.00
12130;DHT22;6128;59.340;18.040;2023-10-08T12:21:15;10.20;97.90
12130;DHT22;6128;59.340;18.040;2023-10-08T12:23:43;10.20;97.80
12130;DHT22;6128;59.340;18.040;2023-10-08T12:26:12;10.30;97.80
12130;DHT22;6128;59.340;18.040;2023-10-08T12:28:43;10.30;97.90
12130;DHT22;6128;59.340;18.040;2023-10-08T12:31:12;10.20;98.00
12130;DHT22;6128;59.340;18.040;2023-10-08T12:33:41;10.20;98.00
12130;DHT22;6128;59.340;18.040;2023-10-08T12:36:10;10.20;98.00
12130;DHT22;6128;59.340;18.040;2023-10-08T12:38:38;10.20;98.00
12130;DHT22;6128;59.340;18.040;2023-10-08T12:41:07;10.20;98.00
12130;DHT22;6128;59.340;18.040;2023-10-08T12:43:40;10.20;98.00
12130;DHT22;6128;59.340;18.040;2023-10-08T12:46:13;10.30;98.00
12130;DHT22;6128;59.340;18.040;2023-10-08T12:48:48;10.30;98.10
12130;DHT22;6128;59.340;18.040;2023-10-08T12:51:18;10.30;98.10
12130;DHT22;6128;59.340;18.040;2023-10-08T12:53:49;10.20;98.00
12130;DHT22;6128;59.340;18.040;2023-10-08T12:56:25;10.20;97.90
12130;DHT22;6128;59.340;18.040;2023-10-08T12:58:58;10.10;97.80
12130;DHT22;6128;59.340;18.040;2023-10-08T13:01:26;10.10;97.80
12130;DHT22;6128;59.340;18.040;2023-10-08T13:03:56;10.10;97.70
12130;DHT22;6128;59.340;18.040;2023-10-08T13:06:27;10.10;97.60
12130;DHT22;6128;59.340;18.040;2023-10-08T13:08:58;10.10;97.60
12130;DHT22;6128;59.340;18.040;2023-10-08T13:11:26;10.10;97.70
12130;DHT22;6128;59.340;18.040;2023-10-08T13:13:56;10.20;97.70
12130;DHT22;6128;59.340;18.040;2023-10-08T13:16:26;10.40;97.70
12130;DHT22;6128;59.340;18.040;2023-10-08T13:18:57;10.50;97.70
12130;DHT22;6128;59.340;18.040;2023-10-08T13:21:25;10.50;97.80
12130;DHT22;6128;59.340;18.040;2023-10-08T13:23:54;10.40;97.80
12130;DHT22;6128;59.340;18.040;2023-10-08T13:26:23;10.30;97.80
12130;DHT22;6128;59.340;18.040;2023-10-08T13:28:54;10.20;97.80
12130;DHT22;6128;59.340;18.040;2023-10-08T13:31:21;10.00;97.70
12130;DHT22;6128;59.340;18.040;2023-10-08T13:33:50;10.00;97.70
12130;DHT22;6128;59.340;18.040;2023-10-08T13:36:18;9.90;97.70
12130;DHT22;6128;59.340;18.040;2023-10-08T13:38:45;9.90;97.70
12130;DHT22;6128;59.340;18.040;2023-10-08T13:41:13;9.80;97.70
12130;DHT22;6128;59.340;18.040;2023-10-08T13:43:44;9.80;97.80
12130;DHT22;6128;59.340;18.040;2023-10-08T13:46:14;9.90;97.90
12130;DHT22;6128;59.340;18.040;2023-10-08T13:48:44;9.80;98.00
12130;DHT22;6128;59.340;18.040;2023-10-08T13:51:16;9.80;98.10
12130;DHT22;6128;59.340;18.040;2023-10-08T13:53:48;9.80;98.10
12130;DHT22;6128;59.340;18.040;2023-10-08T13:56:18;9.90;98.10
12130;DHT22;6128;59.340;18.040;2023-10-08T13:58:46;9.90;98.20
12130;DHT22;6128;59.340;18.040;2023-10-08T14:01:15;9.90;98.20
12130;DHT22;6128;59.340;18.040;2023-10-08T14:03:47;9.80;98.20
12130;DHT22;6128;59.340;18.040;2023-10-08T14:06:16;9.80;98.20
12130;DHT22;6128;59.340;18.040;2023-10-08T14:08:43;9.80;98.30
12130;DHT22;6128;59.340;18.040;2023-10-08T14:11:18;9.80;98.30
12130;DHT22;6128;59.340;18.040;2023-10-08T14:13:45;9.80;98.30
12130;DHT22;6128;59.340;18.040;2023-10-08T14:16:14;9.80;98.30
12130;DHT22;6128;59.340;18.040;2023-10-08T14:18:43;9.80;98.30
12130;DHT22;6128;59.340;18.040;2023-10-08T14:21:17;9.70;98.20
12130;DHT22;6128;59.340;18.040;2023-10-08T14:23:45;9.70;98.20
12130;DHT22;6128;59.340;18.040;2023-10-08T14:26:13;9.60;98.10
12130;DHT22;6128;59.340;18.040;2023-10-08T14:28:41;9.60;98.10
12130;DHT22;6128;59.340;18.040;2023-10-08T14:31:16;9.60;98.20
12130;DHT22;6128;59.340;18.040;2023-10-08T14:33:48;9.60;98.20
12130;DHT22;6128;59.340;18.040;2023-10-08T14:36:32;9.60;98.20
12130;DHT22;6128;59.340;18.040;2023-10-08T14:39:17;9.60;98.20
12130;DHT22;6128;59.340;18.040;2023-10-08T14:42:10;9.50;98.30
12130;DHT22;6128;59.340;18.040;2023-10-08T14:44:55;9.50;98.20
12130;DHT22;6128;59.340;18.040;2023-10-08T14:47:22;9.50;98.30
12130;DHT22;6128;59.340;18.040;2023-10-08T14:49:49;9.50;98.30
12130;DHT22;6128;59.340;18.040;2023-10-08T14:52:18;9.50;98.30
12130;DHT22;6128;59.340;18.040;2023-10-08T14:54:45;9.50;98.30
12130;DHT22;6128;59.340;18.040;2023-10-08T14:57:13;9.50;98.30
12130;DHT22;6128;59.340;18.040;2023-10-08T14:59:41;9.50;98.40
12130;DHT22;6128;59.340;18.040;2023-10-08T15:02:16;9.40;98.40
12130;DHT22;6128;59.340;18.040;2023-10-08T15:04:43;9.40;98.40
12130;DHT22;6128;59.340;18.040;2023-10-08T15:07:10;9.40;98.50
12130;DHT22;6128;59.340;18.040;2023-10-08T15:09:39;9.40;98.60
12130;DHT22;6128;59.340;18.040;2023-10-08T15:12:07;9.40;98.60
12130;DHT22;6128;59.340;18.040;2023-10-08T15:14:34;9.40;98.60
12130;DHT22;6128;59.340;18.040;2023-10-08T15:17:03;9.30;98.60
12130;DHT22;6128;59.340;18.040;2023-10-08T15:19:31;9.30;98.70
12130;DHT22;6128;59.340;18.040;2023-10-08T15:21:58;9.30;98.70
12130;DHT22;6128;59.340;18.040;2023-10-08T15:24:28;9.30;98.70
12130;DHT22;6128;59.340;18.040;2023-10-08T15:26:57;9.30;98.80
12130;DHT22;6128;59.340;18.040;2023-10-08T15:29:25;9.30;98.80
12130;DHT22;6128;59.340;18.040;2023-10-08T15:31:55;9.30;98.90
12130;DHT22;6128;59.340;18.040;2023-10-08T15:34:22;9.20;98.90
12130;DHT22;6128;59.340;18.040;2023-10-08T15:36:52;9.20;99.00
12130;DHT22;6128;59.340;18.040;2023-10-08T15:39:19;9.20;99.00
12130;DHT22;6128;59.340;18.040;2023-10-08T15:41:48;9.20;99.10
12130;DHT22;6128;59.340;18.040;2023-10-08T15:44:17;9.20;99.10
12130;DHT22;6128;59.340;18.040;2023-10-08T15:46:46;9.10;99.10
12130;DHT22;6128;59.340;18.040;2023-10-08T15:49:14;9.10;99.20
12130;DHT22;6128;59.340;18.040;2023-10-08T15:51:41;9.10;99.30
12130;DHT22;6128;59.340;18.040;2023-10-08T15:54:09;9.10;99.30
12130;DHT22;6128;59.340;18.040;2023-10-08T15:56:36;9.10;99.40
12130;DHT22;6128;59.340;18.040;2023-10-08T15:59:03;9.00;99.40
12130;DHT22;6128;59.340;18.040;2023-10-08T16:01:32;9.00;99.40
12130;DHT22;6128;59.340;18.040;2023-10-08T16:03:59;9.00;99.50
12130;DHT22;6128;59.340;18.040;2023-10-08T16:06:26;8.90;99.50
12130;DHT22;6128;59.340;18.040;2023-10-08T16:08:53;8.90;99.60
12130;DHT22;6128;59.340;18.040;2023-10-08T16:11:20;8.90;99.60
12130;DHT22;6128;59.340;18.040;2023-10-08T16:13:48;8.80;99.60